createdAt,value
2023-04-21T00:00:56.403Z,43.2
2023-04-21T00:03:58.465Z,48.1
2023-04-21T00:07:00.270Z,45.7
2023-04-21T00:10:02.251Z,51.8
2023-04-21T00:13:04.191Z,51.3
2023-04-21T00:16:06.200Z,48.4
2023-04-21T00:19:08.423Z,48.4
2023-04-21T00:22:10.069Z,54.5
2023-04-21T00:25:12.036Z,54.7
2023-04-21T00:28:13.993Z,53.8
2023-04-21T00:31:15.976Z,53.4
2023-04-21T00:34:17.922Z,49.1
2023-04-21T00:37:19.875Z,54.7
2023-04-21T00:40:21.809Z,49.4
2023-04-21T00:43:23.784Z,50.2
2023-04-21T00:46:25.766Z,51.2
2023-04-21T00:49:27.721Z,57.1
2023-04-21T00:52:29.709Z,53.6
2023-04-21T00:55:31.648Z,58.5
2023-04-21T00:58:33.580Z,56.4
2023-04-21T01:01:35.537Z,57.5
2023-04-21T01:04:37.527Z,53
2023-04-21T01:07:39.452Z,51.3
2023-04-21T01:10:41.485Z,56.3
2023-04-21T01:13:43.558Z,50.2
2023-04-21T01:16:45.385Z,58.1
2023-04-21T01:19:47.281Z,61.2
2023-04-21T01:22:49.219Z,70.6
2023-04-21T01:25:51.221Z,63.8
2023-04-21T01:28:53.191Z,66.5
2023-04-21T01:31:55.191Z,62.2
2023-04-21T01:34:57.101Z,59.2
2023-04-21T01:37:59.065Z,65.7
2023-04-21T01:41:01.010Z,63.8
2023-04-21T01:44:03.013Z,63.3
2023-04-21T01:47:04.974Z,76.3
2023-04-21T01:50:06.934Z,74.7
2023-04-21T01:53:08.883Z,73.8
2023-04-21T01:56:10.888Z,75.3
2023-04-21T01:59:12.834Z,77.7
2023-04-21T02:02:14.905Z,79.9
2023-04-21T02:05:16.721Z,78
2023-04-21T02:08:18.740Z,80.9
2023-04-21T02:11:20.743Z,74.8
2023-04-21T02:14:22.763Z,73.7
2023-04-21T02:17:24.765Z,74.2
2023-04-21T02:20:26.686Z,67.9
2023-04-21T02:23:28.649Z,76.8
2023-04-21T02:26:30.607Z,67.9
2023-04-21T02:29:32.596Z,80.4
2023-04-21T02:32:34.669Z,81.9
2023-04-21T02:35:36.560Z,82.7
2023-04-21T02:38:38.480Z,83.4
2023-04-21T02:41:40.457Z,74.1
2023-04-21T02:44:42.438Z,78.5
2023-04-21T02:47:44.400Z,74.8
2023-04-21T02:50:46.318Z,75.1
2023-04-21T02:53:48.270Z,77.3
2023-04-21T02:56:50.253Z,74.1
2023-04-21T02:59:52.202Z,75.3
2023-04-21T03:02:54.294Z,86.6
2023-04-21T03:05:56.123Z,73.9
2023-04-21T03:08:58.261Z,78.6
2023-04-21T03:12:00.079Z,77.2
2023-04-21T03:15:02.044Z,77.4
2023-04-21T03:18:03.973Z,74.8
2023-04-21T03:21:05.928Z,69.7
2023-04-21T03:24:07.888Z,62.2
2023-04-21T03:27:10.950Z,65.3
2023-04-21T03:30:11.827Z,60.7
2023-04-21T03:33:13.776Z,66.2
2023-04-21T03:36:15.744Z,66
2023-04-21T03:39:19.947Z,70.7
2023-04-21T03:42:19.752Z,69.1
2023-04-21T03:45:21.691Z,67.5
2023-04-21T03:48:23.671Z,66.9
2023-04-21T03:51:25.646Z,76.2
2023-04-21T03:54:27.579Z,79
2023-04-21T03:57:29.584Z,78
2023-04-21T04:00:31.514Z,76.8
2023-04-21T04:03:33.592Z,75.1
2023-04-21T04:06:35.461Z,78
2023-04-21T04:09:37.618Z,81.1
2023-04-21T04:12:39.359Z,85
2023-04-21T04:15:41.357Z,73.9
2023-04-21T04:18:43.293Z,76.4
2023-04-21T04:21:46.581Z,70.1
2023-04-21T04:24:47.213Z,75.4
2023-04-21T04:27:49.153Z,68
2023-04-21T04:30:51.181Z,71.1
2023-04-21T04:33:55.098Z,72.3
2023-04-21T04:36:55.046Z,69.8
2023-04-21T04:39:57.124Z,66.9
2023-04-21T04:42:59.078Z,71.4
2023-04-21T04:46:01.001Z,65.3
2023-04-21T04:49:02.992Z,67.9
2023-04-21T04:52:04.932Z,62.3
2023-04-21T04:55:06.886Z,67.6
2023-04-21T04:58:08.832Z,64.2
2023-04-21T05:01:10.807Z,69.4
2023-04-21T05:04:12.849Z,68.2
2023-04-21T05:07:14.735Z,71
2023-04-21T05:10:16.729Z,61.9
2023-04-21T05:13:18.672Z,69
2023-04-21T05:16:20.610Z,65.9
2023-04-21T05:19:22.584Z,62.2
2023-04-21T05:22:24.581Z,69.3
2023-04-21T05:25:26.491Z,60.9
2023-04-21T05:28:28.446Z,65.7
2023-04-21T05:31:30.399Z,67
2023-04-21T05:34:32.371Z,68.9
2023-04-21T05:37:34.364Z,70.6
2023-04-21T05:40:36.323Z,71.2
2023-04-21T05:43:38.448Z,65.1
2023-04-21T05:46:40.279Z,63.8
2023-04-21T05:49:42.197Z,59.1
2023-04-21T05:52:44.144Z,60.2
2023-04-21T05:55:46.097Z,64.3
2023-04-21T05:58:48.057Z,57.2
2023-04-21T06:01:50.068Z,53.8
2023-04-21T06:04:52.091Z,63.3
2023-04-21T06:07:53.994Z,61.3
2023-04-21T06:10:55.937Z,56.4
2023-04-21T06:13:57.923Z,61.5
2023-04-21T06:16:59.871Z,59.4
2023-04-21T06:20:01.788Z,53.1
2023-04-21T06:23:03.781Z,51.2
2023-04-21T06:26:05.723Z,54.1
2023-04-21T06:29:07.694Z,57.6
2023-04-21T06:32:09.778Z,52.7
2023-04-21T06:35:11.675Z,48.9
2023-04-21T06:38:13.659Z,50.1
2023-04-21T06:41:15.754Z,50
2023-04-21T06:44:18.295Z,43.2
2023-04-21T06:47:19.696Z,43.2
2023-04-21T06:50:21.647Z,43.5
2023-04-21T06:53:23.584Z,42.9
2023-04-21T06:56:25.592Z,40.9
2023-04-21T06:59:27.549Z,36.4
2023-04-21T07:02:29.578Z,29.5
2023-04-21T07:05:31.496Z,31.8
2023-04-21T07:08:33.408Z,33.3
2023-04-21T07:11:35.416Z,36.2
2023-04-21T07:14:37.373Z,36
2023-04-21T07:17:39.311Z,31.3
2023-04-21T07:20:41.275Z,35.7
2023-04-21T07:23:43.207Z,35.7
2023-04-21T07:26:45.184Z,35.7
2023-04-21T07:29:47.148Z,40.3
2023-04-21T07:32:49.179Z,35.8
2023-04-21T07:35:51.121Z,38.9
2023-04-21T07:38:53.099Z,34.7
2023-04-21T07:41:55.019Z,29
2023-04-21T07:44:57.007Z,36
2023-04-21T07:47:59.005Z,29.7
2023-04-21T07:51:00.928Z,26.3
2023-04-21T07:54:02.892Z,31
2023-04-21T07:57:04.833Z,27.9
2023-04-21T08:00:06.869Z,31.7
2023-04-21T08:03:09.007Z,31.3
2023-04-21T08:06:10.919Z,30.3
2023-04-21T08:09:12.639Z,31.9
2023-04-21T08:12:14.614Z,33.3
2023-04-21T08:15:16.644Z,30.2
2023-04-21T08:18:20.578Z,35.2
2023-04-21T08:21:20.533Z,36.8
2023-04-21T08:24:22.898Z,35.5
2023-04-21T08:27:24.498Z,36.3
2023-04-21T08:30:26.412Z,33.2
2023-04-21T08:33:28.376Z,34.5
2023-04-21T08:36:30.805Z,33.7
2023-04-21T08:39:32.327Z,31.7
2023-04-21T08:42:34.311Z,36.7
2023-04-21T08:45:36.248Z,35
2023-04-21T08:48:38.212Z,29
2023-04-21T08:51:40.172Z,32.8
2023-04-21T08:54:42.127Z,32
2023-04-21T08:57:44.080Z,33.7
2023-04-21T09:00:46.053Z,27.4
2023-04-21T09:03:48.088Z,28.7
2023-04-21T09:06:50.101Z,28
2023-04-21T09:09:51.958Z,30
2023-04-21T09:12:53.874Z,27
2023-04-21T09:15:55.837Z,23.7
2023-04-21T09:18:57.870Z,32.5
2023-04-21T09:21:59.821Z,29.6
2023-04-21T09:25:01.794Z,30.5
2023-04-21T09:28:04.088Z,34.7
2023-04-21T09:31:05.757Z,33.4
2023-04-21T09:34:07.696Z,33.7
2023-04-21T09:37:09.676Z,37.3
2023-04-21T09:40:11.745Z,30
2023-04-21T09:43:13.631Z,30.6
2023-04-21T09:46:15.626Z,28.3
2023-04-21T09:49:17.612Z,30
2023-04-21T09:52:19.897Z,28.6
2023-04-21T09:55:21.551Z,27.2
2023-04-21T09:58:23.549Z,31
2023-04-21T10:01:25.618Z,24.7
2023-04-21T10:07:29.512Z,29.4
2023-04-21T10:10:31.455Z,23
2023-04-21T10:13:33.418Z,26.6
2023-04-21T10:16:35.428Z,24.9
2023-04-21T10:19:37.398Z,20.1
2023-04-21T10:22:39.384Z,23
2023-04-21T10:25:41.349Z,23.3
2023-04-21T10:28:43.357Z,26.3
2023-04-21T10:31:45.433Z,27.4
2023-04-21T10:34:47.321Z,27.7
2023-04-21T10:37:49.263Z,24
2023-04-21T10:40:51.229Z,23.3
2023-04-21T10:43:53.193Z,24.5
2023-04-21T10:46:55.242Z,26.6
2023-04-21T10:49:57.159Z,23.9
2023-04-21T10:52:59.193Z,23.8
2023-04-21T10:56:01.135Z,19.7
2023-04-21T10:59:03.118Z,24.8
2023-04-21T11:02:05.124Z,21.2
2023-04-21T11:05:07.050Z,22.3
2023-04-21T11:08:08.996Z,22.6
2023-04-21T11:11:11.022Z,18.4
2023-04-21T11:14:12.940Z,20.8
2023-04-21T11:17:15.244Z,23.6
2023-04-21T11:20:17.211Z,23.6
2023-04-21T11:23:18.969Z,20.6
2023-04-21T11:26:20.943Z,22
2023-04-21T11:29:22.909Z,18.5
2023-04-21T11:32:24.882Z,19.3
2023-04-21T11:35:26.840Z,16.9
2023-04-21T11:38:28.802Z,19.2
2023-04-21T11:41:30.783Z,23.6
2023-04-21T11:44:32.830Z,21.7
2023-04-21T11:47:34.750Z,20
2023-04-21T11:50:36.686Z,23.1
2023-04-21T11:53:38.655Z,21.1
2023-04-21T11:56:40.645Z,19.2
2023-04-21T11:59:42.607Z,23.1
2023-04-21T12:02:44.696Z,18.8
2023-04-21T12:05:46.614Z,21.1
2023-04-21T12:08:48.500Z,18.6
2023-04-21T12:11:50.482Z,17.1
2023-04-21T12:14:52.496Z,15.1
2023-04-21T12:17:54.512Z,17.1
2023-04-21T12:20:56.477Z,18.3
2023-04-21T12:23:58.452Z,16.9
2023-04-21T12:27:00.482Z,16.5
2023-04-21T12:30:02.467Z,16
2023-04-21T12:33:04.483Z,15.8
2023-04-21T12:36:06.357Z,13.9
2023-04-21T12:39:08.351Z,15.7
2023-04-21T12:42:10.468Z,18.5
2023-04-21T12:45:12.297Z,18.6
2023-04-21T12:48:14.258Z,15.6
2023-04-21T12:51:16.266Z,14.7
2023-04-21T12:54:18.169Z,16
2023-04-21T12:57:20.140Z,14.6
2023-04-21T13:00:22.150Z,14.6
2023-04-21T13:03:24.155Z,16
2023-04-21T13:06:26.070Z,13.3
2023-04-21T13:09:28.195Z,15.4
2023-04-21T13:12:30.037Z,12.6
2023-04-21T13:15:32.009Z,10.2
2023-04-21T13:18:34.008Z,11
2023-04-21T13:21:35.967Z,12.8
2023-04-21T13:24:38.101Z,11.6
2023-04-21T13:27:40.084Z,17.4
2023-04-21T13:30:42.037Z,12.9
2023-04-21T13:33:43.984Z,15.7
2023-04-21T13:36:45.961Z,14.7
2023-04-21T13:39:47.911Z,14.1
2023-04-21T13:42:49.844Z,10.7
2023-04-21T13:45:51.844Z,10.7
2023-04-21T13:48:53.789Z,11.5
2023-04-21T13:51:55.794Z,11.5
2023-04-21T13:54:57.702Z,10
2023-04-21T13:57:59.691Z,11.8
2023-04-21T14:01:01.612Z,11.9
2023-04-21T14:04:03.765Z,11.1
2023-04-21T14:07:05.553Z,9.3
2023-04-21T14:10:07.504Z,9.7
2023-04-21T14:13:12.731Z,9.9
2023-04-21T14:16:11.394Z,9.9
2023-04-21T14:19:13.399Z,10.8
2023-04-21T14:22:15.344Z,9.3
2023-04-21T14:25:17.305Z,9.7
2023-04-21T14:28:19.274Z,7.4
2023-04-21T14:31:21.927Z,11
2023-04-21T14:34:23.153Z,10.6
2023-04-21T14:37:25.118Z,9.7
2023-04-21T14:40:27.126Z,8.8
2023-04-21T14:43:29.102Z,10
2023-04-21T14:46:31.040Z,8.1
2023-04-21T14:49:33.135Z,7.7
2023-04-21T14:52:34.919Z,9.5
2023-04-21T14:55:36.932Z,7.9
2023-04-21T14:58:38.866Z,7.5
2023-04-21T15:01:40.828Z,7.7
2023-04-21T15:04:42.781Z,9.3
2023-04-21T15:07:44.716Z,8.9
2023-04-21T15:10:46.673Z,7.9
2023-04-21T15:13:48.654Z,6.9
2023-04-21T15:16:50.610Z,10.2
2023-04-21T15:19:52.532Z,8.3
2023-04-21T15:22:54.524Z,9.8
2023-04-21T15:25:56.493Z,8.4
2023-04-21T15:28:58.432Z,8.8
2023-04-21T15:32:00.429Z,9.1
2023-04-21T15:35:02.365Z,9.3
2023-04-21T15:38:04.320Z,8.5
2023-04-21T15:41:06.360Z,8.7
2023-04-21T15:44:08.254Z,9
2023-04-21T15:47:10.233Z,9
2023-04-21T15:50:12.249Z,6.7
2023-04-21T15:53:14.169Z,7.9
2023-04-21T15:56:16.116Z,6.8
2023-04-21T15:59:18.073Z,8
2023-04-21T16:02:20.132Z,7
2023-04-21T16:05:23.864Z,8.1
2023-04-21T16:08:24.162Z,9.2
2023-04-21T16:11:26.096Z,7.9
2023-04-21T16:14:31.793Z,7.5
2023-04-21T16:17:30.088Z,7.1
2023-04-21T16:20:32.018Z,6.1
2023-04-21T16:23:34.044Z,8.4
2023-04-21T16:26:35.981Z,8.1
2023-04-21T16:29:38.008Z,6.8
2023-04-21T16:32:39.968Z,6
2023-04-21T16:35:41.982Z,6.5
2023-04-21T16:38:43.878Z,6.4
2023-04-21T16:41:45.881Z,5.8
2023-04-21T16:44:47.818Z,7.1
2023-04-21T16:47:49.806Z,6.3
2023-04-21T16:50:51.791Z,6.1
2023-04-21T16:53:53.701Z,7.1
2023-04-21T16:56:55.654Z,8.1
2023-04-21T16:59:57.616Z,6
2023-04-21T17:02:59.698Z,7.5
2023-04-21T17:06:01.553Z,7.3
2023-04-21T17:09:03.480Z,7.3
2023-04-21T17:12:05.491Z,8.7
2023-04-21T17:15:07.477Z,5.7
2023-04-21T17:18:09.442Z,6.8
2023-04-21T17:21:11.356Z,6.4
2023-04-21T17:24:13.397Z,6.7
2023-04-21T17:27:15.286Z,5.8
2023-04-21T17:30:17.287Z,7
2023-04-21T17:33:19.299Z,6.6
2023-04-21T17:36:21.207Z,6.3
2023-04-21T17:39:23.172Z,4.2
2023-04-21T17:42:25.158Z,5
2023-04-21T17:45:27.116Z,5.4
2023-04-21T17:48:29.058Z,6.5
2023-04-21T17:51:31.067Z,5.2
2023-04-21T17:54:33.077Z,5.4
2023-04-21T17:57:35.052Z,4.9
2023-04-21T18:00:37.029Z,5.5
2023-04-21T18:03:39.144Z,6.4
2023-04-21T18:06:40.979Z,5.9
2023-04-21T18:09:42.922Z,4.9
2023-04-21T18:12:44.876Z,5.5
2023-04-21T18:15:46.856Z,3.1
2023-04-21T18:18:48.845Z,2.8
2023-04-21T18:21:50.877Z,4.9
2023-04-21T18:24:52.734Z,2.9
2023-04-21T18:27:54.697Z,2
2023-04-21T18:30:56.706Z,2.7
2023-04-21T18:33:58.649Z,2.6
2023-04-21T18:37:00.700Z,2.4
2023-04-21T18:40:02.653Z,2.7
2023-04-21T18:43:04.603Z,3.1
2023-04-21T18:46:06.690Z,2.7
2023-04-21T18:49:08.532Z,3.1
2023-04-21T18:52:10.457Z,6.9
2023-04-21T18:55:12.443Z,2.6
2023-04-21T18:58:14.368Z,3.4
2023-04-21T19:01:16.403Z,4.2
2023-04-21T19:04:18.416Z,5.4
2023-04-21T19:07:20.244Z,3.3
2023-04-21T19:10:22.188Z,3
2023-04-21T19:13:24.172Z,3.7
2023-04-21T19:16:26.197Z,3.3
2023-04-21T19:19:28.082Z,3.7
2023-04-21T19:22:30.066Z,4.3
2023-04-21T19:25:32.056Z,4.2
2023-04-21T19:28:33.972Z,4
2023-04-21T19:31:35.982Z,4.5
2023-04-21T19:34:38.064Z,3.8
2023-04-21T19:37:39.854Z,4.5
2023-04-21T19:40:41.810Z,5.8
2023-04-21T19:43:43.771Z,4.5
2023-04-21T19:46:45.780Z,5.5
2023-04-21T19:49:47.672Z,5.3
2023-04-21T19:52:49.634Z,5.1
2023-04-21T19:55:52.600Z,5.4
2023-04-21T19:58:53.533Z,6.2
2023-04-21T20:01:55.633Z,6.1
2023-04-21T20:04:57.644Z,5.6
2023-04-21T20:07:59.472Z,4.4
2023-04-21T20:11:01.457Z,5.7
2023-04-21T20:14:03.421Z,5
2023-04-21T20:17:05.397Z,4.5
2023-04-21T20:20:07.328Z,6.2
2023-04-21T20:23:09.276Z,5.2
2023-04-21T20:26:11.218Z,5.4
2023-04-21T20:29:13.227Z,6.6
2023-04-21T20:32:15.142Z,5.8
2023-04-21T20:35:17.204Z,7.9
2023-04-21T20:38:19.105Z,6.2
2023-04-21T20:41:21.015Z,6.4
2023-04-21T20:44:22.963Z,7.1
2023-04-21T20:47:24.948Z,8.4
2023-04-21T20:50:26.942Z,6.1
2023-04-21T20:53:29.060Z,6.6
2023-04-21T20:56:30.835Z,5.5
2023-04-21T20:59:32.820Z,8.2
2023-04-21T21:02:34.850Z,7
2023-04-21T21:05:36.689Z,6.2
2023-04-21T21:08:38.673Z,6.7
2023-04-21T21:11:40.949Z,7
2023-04-21T21:14:42.576Z,6.8
2023-04-21T21:17:44.609Z,6.1
2023-04-21T21:20:46.534Z,6.6
2023-04-21T21:23:48.525Z,7
2023-04-21T21:26:50.433Z,8.2
2023-04-21T21:29:52.406Z,6
2023-04-21T21:32:54.397Z,7.4
2023-04-21T21:35:56.332Z,8.9
2023-04-21T21:38:58.290Z,7.4
2023-04-21T21:42:00.288Z,7.4
2023-04-21T21:45:02.291Z,5.9
2023-04-21T21:48:04.190Z,6.5
2023-04-21T21:51:06.159Z,7.1
2023-04-21T21:54:08.148Z,6.8
2023-04-21T21:57:10.041Z,8.2
2023-04-21T22:00:12.011Z,6.4
2023-04-21T22:03:14.073Z,9.8
2023-04-21T22:06:17.272Z,8.5
2023-04-21T22:09:18.091Z,9.2
2023-04-21T22:12:19.866Z,9.2
2023-04-21T22:15:21.817Z,9.6
2023-04-21T22:18:23.853Z,8.1
2023-04-21T22:21:25.796Z,9.8
2023-04-21T22:24:27.735Z,8.6
2023-04-21T22:27:29.723Z,9.6
2023-04-21T22:30:31.748Z,8.3
2023-04-21T22:33:33.625Z,9.6
2023-04-21T22:36:35.613Z,8.3
2023-04-21T22:39:37.827Z,8.5
2023-04-21T22:42:39.551Z,8.8
2023-04-21T22:45:41.650Z,10
2023-04-21T22:48:43.474Z,8.4
2023-04-21T22:51:45.441Z,7.4
2023-04-21T22:54:47.391Z,10.7
2023-04-21T22:57:49.342Z,9.1
2023-04-21T23:00:51.310Z,8.1
2023-04-21T23:03:53.375Z,9.4
2023-04-21T23:06:55.225Z,8.2
2023-04-21T23:09:57.280Z,10.8
2023-04-21T23:13:00.808Z,10.4
2023-04-21T23:16:01.219Z,9.8
2023-04-21T23:19:03.137Z,9.3
2023-04-21T23:22:05.103Z,7.5
2023-04-21T23:25:07.017Z,7.8
2023-04-21T23:28:09.000Z,9.6
2023-04-21T23:31:11.177Z,8.1
2023-04-21T23:34:12.926Z,8.9
2023-04-21T23:37:14.912Z,10.3
2023-04-21T23:40:16.846Z,11.5
2023-04-21T23:43:18.786Z,8.3
2023-04-21T23:46:20.762Z,8.8
2023-04-21T23:49:22.678Z,10.6
2023-04-21T23:52:24.676Z,8.5
2023-04-21T23:55:26.617Z,10.8
2023-04-21T23:58:28.559Z,11.3
